sensor_id;sensor_type;location;lat;lon;timestamp;pressure;altitude;pressure_sealevel;temperature;humidity
20909;BME280;10614;53.198;6.570;2022-09-29T00:01:38;100012.44;;;7.67;100.00
20909;BME280;10614;53.198;6.570;2022-09-29T00:03:39;100004.56;;;7.67;100.00
20909;BME280;10614;53.198;6.570;2022-09-29T00:05:45;100002.94;;;7.65;100.00
20909;BME280;10614;53.198;6.570;2022-09-29T00:07:47;100012.56;;;7.64;100.00
20909;BME280;10614;53.198;6.570;2022-09-29T00:09:50;100003.91;;;7.62;100.00
20909;BME280;10614;53.198;6.570;2022-09-29T00:11:53;100003.97;;;7.60;100.00
20909;BME280;10614;53.198;6.570;2022-09-29T00:13:55;100005.81;;;7.58;100.00
20909;BME280;10614;53.198;6.570;2022-09-29T00:15:58;100009.41;;;7.56;100.00
20909;BME280;10614;53.198;6.570;2022-09-29T00:18:00;100006.91;;;7.53;100.00
20909;BME280;10614;53.198;6.570;2022-09-29T00:20:02;100003.63;;;7.48;100.00
20909;BME280;10614;53.198;6.570;2022-09-29T00:22:04;100010.69;;;7.46;100.00
20909;BME280;10614;53.198;6.570;2022-09-29T00:24:05;100011.53;;;7.46;100.00
20909;BME280;10614;53.198;6.570;2022-09-29T00:26:10;100007.22;;;7.45;100.00
20909;BME280;10614;53.198;6.570;2022-09-29T00:28:12;100009.72;;;7.48;100.00
20909;BME280;10614;53.198;6.570;2022-09-29T00:30:14;100004.53;;;7.47;100.00
20909;BME280;10614;53.198;6.570;2022-09-29T00:32:16;100008.94;;;7.46;100.00
20909;BME280;10614;53.198;6.570;2022-09-29T00:34:18;100004.63;;;7.45;100.00
20909;BME280;10614;53.198;6.570;2022-09-29T00:36:20;100004.63;;;7.45;100.00
20909;BME280;10614;53.198;6.570;2022-09-29T00:38:23;100010.84;;;7.43;100.00
20909;BME280;10614;53.198;6.570;2022-09-29T00:40:24;100006.44;;;7.43;100.00
20909;BME280;10614;53.198;6.570;2022-09-29T00:42:27;100005.59;;;7.43;100.00
20909;BME280;10614;53.198;6.570;2022-09-29T00:47:13;100010.94;;;7.39;100.00
20909;BME280;10614;53.198;6.570;2022-09-29T00:49:20;100013.63;;;7.38;100.00
20909;BME280;10614;53.198;6.570;2022-09-29T00:51:25;100016.34;;;7.35;100.00
20909;BME280;10614;53.198;6.570;2022-09-29T00:53:27;100012.09;;;7.32;100.00
20909;BME280;10614;53.198;6.570;2022-09-29T00:55:33;100020.03;;;7.31;100.00
20909;BME280;10614;53.198;6.570;2022-09-29T00:57:42;100021.78;;;7.30;100.00
20909;BME280;10614;53.198;6.570;2022-09-29T00:59:48;100014.84;;;7.29;100.00
20909;BME280;10614;53.198;6.570;2022-09-29T01:01:51;100015.59;;;7.33;100.00
20909;BME280;10614;53.198;6.570;2022-09-29T01:04:10;100010.34;;;7.33;100.00
20909;BME280;10614;53.198;6.570;2022-09-29T01:06:14;100005.88;;;7.35;100.00
20909;BME280;10614;53.198;6.570;2022-09-29T01:08:22;100015.47;;;7.36;100.00
20909;BME280;10614;53.198;6.570;2022-09-29T01:10:25;100011.91;;;7.37;100.00
20909;BME280;10614;53.198;6.570;2022-09-29T01:12:27;100007.56;;;7.37;100.00
20909;BME280;10614;53.198;6.570;2022-09-29T01:14:31;100005.84;;;7.36;100.00
20909;BME280;10614;53.198;6.570;2022-09-29T01:16:35;100010.09;;;7.39;100.00
20909;BME280;10614;53.198;6.570;2022-09-29T01:18:39;100016.25;;;7.38;100.00
20909;BME280;10614;53.198;6.570;2022-09-29T01:20:49;100016.25;;;7.38;100.00
20909;BME280;10614;53.198;6.570;2022-09-29T01:25:42;100005.16;;;7.31;100.00
20909;BME280;10614;53.198;6.570;2022-09-29T01:28:20;100006.81;;;7.34;100.00
20909;BME280;10614;53.198;6.570;2022-09-29T01:30:45;100015.59;;;7.33;100.00
20909;BME280;10614;53.198;6.570;2022-09-29T01:33:05;100011.31;;;7.30;100.00
20909;BME280;10614;53.198;6.570;2022-09-29T01:35:15;100009.59;;;7.29;100.00
20909;BME280;10614;53.198;6.570;2022-09-29T01:37:27;100012.22;;;7.29;100.00
20909;BME280;10614;53.198;6.570;2022-09-29T01:39:34;100011.44;;;7.27;100.00
20909;BME280;10614;53.198;6.570;2022-09-29T01:41:43;100013.16;;;7.28;100.00
20909;BME280;10614;53.198;6.570;2022-09-29T01:43:54;100013.22;;;7.27;100.00
20909;BME280;10614;53.198;6.570;2022-09-29T01:46:00;100017.66;;;7.25;100.00
20909;BME280;10614;53.198;6.570;2022-09-29T01:48:05;100014.22;;;7.23;100.00
20909;BME280;10614;53.198;6.570;2022-09-29T01:50:13;100013.44;;;7.21;100.00
20909;BME280;10614;53.198;6.570;2022-09-29T01:52:18;100017.88;;;7.18;100.00
20909;BME280;10614;53.198;6.570;2022-09-29T01:54:29;100024.03;;;7.17;100.00
20909;BME280;10614;53.198;6.570;2022-09-29T01:56:35;100027.69;;;7.13;100.00
20909;BME280;10614;53.198;6.570;2022-09-29T01:58:44;100022.53;;;7.12;100.00
20909;BME280;10614;53.198;6.570;2022-09-29T02:00:53;100019.94;;;7.10;100.00
20909;BME280;10614;53.198;6.570;2022-09-29T02:03:00;100024.38;;;7.08;100.00
20909;BME280;10614;53.198;6.570;2022-09-29T02:05:09;100023.59;;;7.06;100.00
20909;BME280;10614;53.198;6.570;2022-09-29T02:07:19;100020.09;;;7.07;100.00
20909;BME280;10614;53.198;6.570;2022-09-29T02:09:25;100024.38;;;7.08;100.00
20909;BME280;10614;53.198;6.570;2022-09-29T02:11:31;100016.53;;;7.08;100.00
20909;BME280;10614;53.198;6.570;2022-09-29T02:13:37;100020.84;;;7.09;100.00
20909;BME280;10614;53.198;6.570;2022-09-29T02:15:44;100027.75;;;7.12;100.00
20909;BME280;10614;53.198;6.570;2022-09-29T02:17:48;100016.41;;;7.11;100.00
20909;BME280;10614;53.198;6.570;2022-09-29T02:19:53;100016.53;;;7.08;100.00
20909;BME280;10614;53.198;6.570;2022-09-29T02:21:55;100023.47;;;7.09;100.00
20909;BME280;10614;53.198;6.570;2022-09-29T02:23:57;100016.53;;;7.08;100.00
20909;BME280;10614;53.198;6.570;2022-09-29T02:25:59;100014.94;;;7.04;100.00
20909;BME280;10614;53.198;6.570;2022-09-29T02:28:01;100022.06;;;7.01;100.00
20909;BME280;10614;53.198;6.570;2022-09-29T02:30:04;100016.88;;;6.99;100.00
20909;BME280;10614;53.198;6.570;2022-09-29T02:32:07;100020.34;;;7.00;100.00
20909;BME280;10614;53.198;6.570;2022-09-29T02:34:12;100011.66;;;6.99;100.00
20909;BME280;10614;53.198;6.570;2022-09-29T02:36:25;100018.66;;;6.98;100.00
20909;BME280;10614;53.198;6.570;2022-09-29T02:38:40;100025.53;;;7.01;100.00
20909;BME280;10614;53.198;6.570;2022-09-29T02:40:48;100018.63;;;7.00;100.00
20909;BME280;10614;53.198;6.570;2022-09-29T02:43:18;100024.69;;;7.01;100.00
20909;BME280;10614;53.198;6.570;2022-09-29T02:45:32;100027.31;;;7.01;100.00
20909;BME280;10614;53.198;6.570;2022-09-29T02:47:53;100026.50;;;6.98;100.00
20909;BME280;10614;53.198;6.570;2022-09-29T02:52:45;100024.13;;;6.92;100.00
20909;BME280;10614;53.198;6.570;2022-09-29T02:54:59;100035.38;;;6.94;100.00
20909;BME280;10614;53.198;6.570;2022-09-29T02:57:15;100033.69;;;6.93;100.00
20909;BME280;10614;53.198;6.570;2022-09-29T02:59:23;100037.19;;;6.92;100.00
20909;BME280;10614;53.198;6.570;2022-09-29T03:01:29;100036.34;;;6.92;100.00
20909;BME280;10614;53.198;6.570;2022-09-29T03:03:31;100038.03;;;6.93;100.00
20909;BME280;10614;53.198;6.570;2022-09-29T03:05:33;100029.34;;;6.92;100.00
20909;BME280;10614;53.198;6.570;2022-09-29T03:07:36;100033.78;;;6.90;100.00
20909;BME280;10614;53.198;6.570;2022-09-29T03:09:39;100040.78;;;6.90;100.00
20909;BME280;10614;53.198;6.570;2022-09-29T03:11:41;100046.03;;;6.90;100.00
20909;BME280;10614;53.198;6.570;2022-09-29T03:13:42;100034.88;;;6.85;100.00
20909;BME280;10614;53.198;6.570;2022-09-29T03:15:44;100036.81;;;6.80;100.00
20909;BME280;10614;53.198;6.570;2022-09-29T03:17:46;100038.63;;;6.78;100.00
20909;BME280;10614;53.198;6.570;2022-09-29T03:19:47;100039.53;;;6.76;100.00
20909;BME280;10614;53.198;6.570;2022-09-29T03:21:49;100040.44;;;6.75;100.00
20909;BME280;10614;53.198;6.570;2022-09-29T03:23:51;100042.22;;;6.75;100.00
20909;BME280;10614;53.198;6.570;2022-09-29T03:25:54;100044.03;;;6.73;100.00
20909;BME280;10614;53.198;6.570;2022-09-29T03:27:56;100041.47;;;6.71;100.00
20909;BME280;10614;53.198;6.570;2022-09-29T03:29:57;100040.63;;;6.71;100.00
20909;BME280;10614;53.198;6.570;2022-09-29T03:32:00;100045.91;;;6.69;100.00
20909;BME280;10614;53.198;6.570;2022-09-29T03:34:01;100042.44;;;6.69;100.00
20909;BME280;10614;53.198;6.570;2022-09-29T03:36:04;100039.91;;;6.67;100.00
20909;BME280;10614;53.198;6.570;2022-09-29T03:38:06;100042.56;;;6.66;100.00
20909;BME280;10614;53.198;6.570;2022-09-29T03:40:09;100049.59;;;6.64;100.00
20909;BME280;10614;53.198;6.570;2022-09-29T03:42:12;100051.38;;;6.63;100.00
20909;BME280;10614;53.198;6.570;2022-09-29T03:44:14;100057.44;;;6.64;100.00
20909;BME280;10614;53.198;6.570;2022-09-29T03:46:15;100052.34;;;6.61;100.00
20909;BME280;10614;53.198;6.570;2022-09-29T03:48:19;100055.84;;;6.60;100.00
20909;BME280;10614;53.198;6.570;2022-09-29T03:50:21;100054.28;;;6.55;100.00
20909;BME280;10614;53.198;6.570;2022-09-29T03:52:23;100057.06;;;6.51;100.00
20909;BME280;10614;53.198;6.570;2022-09-29T03:54:25;100056.94;;;6.54;100.00
20909;BME280;10614;53.198;6.570;2022-09-29T03:56:27;100063.94;;;6.53;100.00
20909;BME280;10614;53.198;6.570;2022-09-29T03:58:30;100058.75;;;6.52;100.00
20909;BME280;10614;53.198;6.570;2022-09-29T04:00:32;100057.91;;;6.51;100.00
20909;BME280;10614;53.198;6.570;2022-09-29T04:02:33;100062.28;;;6.51;100.00
20909;BME280;10614;53.198;6.570;2022-09-29T04:04:35;100055.38;;;6.48;100.00
20909;BME280;10614;53.198;6.570;2022-09-29T04:06:37;100064.13;;;6.47;100.00
20909;BME280;10614;53.198;6.570;2022-09-29T04:08:39;100061.56;;;6.46;100.00
20909;BME280;10614;53.198;6.570;2022-09-29T04:10:41;100065.16;;;6.43;100.00
20909;BME280;10614;53.198;6.570;2022-09-29T04:12:43;100060.84;;;6.42;100.00
20909;BME280;10614;53.198;6.570;2022-09-29T04:14:46;100060.84;;;6.42;100.00
20909;BME280;10614;53.198;6.570;2022-09-29T04:16:47;100059.19;;;6.40;100.00
20909;BME280;10614;53.198;6.570;2022-09-29T04:18:49;100050.50;;;6.39;100.00
20909;BME280;10614;53.198;6.570;2022-09-29T04:20:51;100052.22;;;6.39;100.00
20909;BME280;10614;53.198;6.570;2022-09-29T04:22:53;100056.63;;;6.38;100.00
20909;BME280;10614;53.198;6.570;2022-09-29T04:24:54;100061.00;;;6.38;100.00
20909;BME280;10614;53.198;6.570;2022-09-29T04:26:56;100056.72;;;6.35;100.00
20909;BME280;10614;53.198;6.570;2022-09-29T04:28:58;100055.88;;;6.34;100.00
20909;BME280;10614;53.198;6.570;2022-09-29T04:31:01;100063.72;;;6.34;100.00
20909;BME280;10614;53.198;6.570;2022-09-29T04:33:03;100063.78;;;6.33;100.00
20909;BME280;10614;53.198;6.570;2022-09-29T04:35:05;100063.81;;;6.31;100.00
20909;BME280;10614;53.198;6.570;2022-09-29T04:37:09;100067.34;;;6.30;100.00
20909;BME280;10614;53.198;6.570;2022-09-29T04:39:11;100067.34;;;6.30;100.00
20909;BME280;10614;53.198;6.570;2022-09-29T04:41:12;100072.63;;;6.29;100.00
20909;BME280;10614;53.198;6.570;2022-09-29T04:43:14;100065.69;;;6.28;100.00
20909;BME280;10614;53.198;6.570;2022-09-29T04:45:16;100059.66;;;6.26;100.00
20909;BME280;10614;53.198;6.570;2022-09-29T04:47:21;100062.31;;;6.24;100.00
20909;BME280;10614;53.198;6.570;2022-09-29T04:49:24;100077.16;;;6.24;100.00
20909;BME280;10614;53.198;6.570;2022-09-29T04:51:26;100069.34;;;6.22;100.00
20909;BME280;10614;53.198;6.570;2022-09-29T04:53:28;100065.91;;;6.22;100.00
20909;BME280;10614;53.198;6.570;2022-09-29T04:55:29;100072.84;;;6.23;100.00
20909;BME280;10614;53.198;6.570;2022-09-29T04:57:31;100064.13;;;6.22;100.00
20909;BME280;10614;53.198;6.570;2022-09-29T04:59:38;100078.13;;;6.21;100.00
20909;BME280;10614;53.198;6.570;2022-09-29T05:01:47;100076.41;;;6.20;100.00
20909;BME280;10614;53.198;6.570;2022-09-29T05:03:50;100079.00;;;6.20;100.00
20909;BME280;10614;53.198;6.570;2022-09-29T05:05:53;100082.53;;;6.19;100.00
20909;BME280;10614;53.198;6.570;2022-09-29T05:07:55;100086.06;;;6.18;100.00
20909;BME280;10614;53.198;6.570;2022-09-29T05:09:58;100074.06;;;6.12;100.00
20909;BME280;10614;53.198;6.570;2022-09-29T05:12:00;100089.69;;;6.14;100.00
20909;BME280;10614;53.198;6.570;2022-09-29T05:14:02;100087.13;;;6.12;100.00
20909;BME280;10614;53.198;6.570;2022-09-29T05:16:05;100086.31;;;6.10;100.00
20909;BME280;10614;53.198;6.570;2022-09-29T05:18:06;100086.31;;;6.10;100.00
20909;BME280;10614;53.198;6.570;2022-09-29T05:20:10;100088.91;;;6.10;100.00
20909;BME280;10614;53.198;6.570;2022-09-29T05:22:12;100088.13;;;6.08;100.00
20909;BME280;10614;53.198;6.570;2022-09-29T05:24:14;100086.38;;;6.09;100.00
20909;BME280;10614;53.198;6.570;2022-09-29T05:26:16;100088.13;;;6.08;100.00
20909;BME280;10614;53.198;6.570;2022-09-29T05:28:17;100093.34;;;6.08;100.00
20909;BME280;10614;53.198;6.570;2022-09-29T05:30:19;100098.63;;;6.07;100.00
20909;BME280;10614;53.198;6.570;2022-09-29T05:32:21;100092.56;;;6.06;100.00
20909;BME280;10614;53.198;6.570;2022-09-29T05:34:22;100091.69;;;6.06;100.00
20909;BME280;10614;53.198;6.570;2022-09-29T05:36:25;100096.06;;;6.05;100.00
20909;BME280;10614;53.198;6.570;2022-09-29T05:38:27;100100.44;;;6.05;100.00
20909;BME280;10614;53.198;6.570;2022-09-29T05:40:29;100096.09;;;6.04;100.00
20909;BME280;10614;53.198;6.570;2022-09-29T05:42:31;100103.06;;;6.05;100.00
20909;BME280;10614;53.198;6.570;2022-09-29T05:44:32;100103.94;;;6.04;100.00
20909;BME280;10614;53.198;6.570;2022-09-29T05:46:34;100105.78;;;6.02;100.00
20909;BME280;10614;53.198;6.570;2022-09-29T05:48:36;100102.25;;;6.03;100.00
20909;BME280;10614;53.198;6.570;2022-09-29T05:50:38;100110.06;;;6.04;100.00
20909;BME280;10614;53.198;6.570;2022-09-29T05:52:43;100116.22;;;6.02;100.00
20909;BME280;10614;53.198;6.570;2022-09-29T05:54:48;100118.88;;;6.00;100.00
20909;BME280;10614;53.198;6.570;2022-09-29T05:56:50;100118.03;;;6.00;100.00
20909;BME280;10614;53.198;6.570;2022-09-29T05:58:52;100118.03;;;6.00;100.00
20909;BME280;10614;53.198;6.570;2022-09-29T06:00:54;100119.84;;;5.98;100.00
20909;BME280;10614;53.198;6.570;2022-09-29T06:02:57;100117.22;;;5.98;100.00
20909;BME280;10614;53.198;6.570;2022-09-29T06:04:59;100126.72;;;6.00;100.00
20909;BME280;10614;53.198;6.570;2022-09-29T06:07:01;100128.41;;;6.01;100.00
20909;BME280;10614;53.198;6.570;2022-09-29T06:09:05;100128.41;;;6.01;100.00
20909;BME280;10614;53.198;6.570;2022-09-29T06:11:09;100133.59;;;6.03;100.00
20909;BME280;10614;53.198;6.570;2022-09-29T06:13:12;100131.81;;;6.05;100.00
20909;BME280;10614;53.198;6.570;2022-09-29T06:15:14;100145.72;;;6.05;100.00
20909;BME280;10614;53.198;6.570;2022-09-29T06:17:15;100134.44;;;6.03;100.00
20909;BME280;10614;53.198;6.570;2022-09-29T06:19:17;100138.78;;;6.04;100.00
20909;BME280;10614;53.198;6.570;2022-09-29T06:21:22;100137.91;;;6.04;100.00
20909;BME280;10614;53.198;6.570;2022-09-29T06:23:24;100142.25;;;6.05;100.00
20909;BME280;10614;53.198;6.570;2022-09-29T06:25:27;100141.44;;;6.03;100.00
20909;BME280;10614;53.198;6.570;2022-09-29T06:27:29;100140.59;;;6.02;100.00
20909;BME280;10614;53.198;6.570;2022-09-29T06:29:30;100149.28;;;6.03;100.00
20909;BME280;10614;53.198;6.570;2022-09-29T06:31:32;100142.25;;;6.05;100.00
20909;BME280;10614;53.198;6.570;2022-09-29T06:33:34;100146.56;;;6.06;100.00
20909;BME280;10614;53.198;6.570;2022-09-29T06:35:36;100148.31;;;6.05;100.00
20909;BME280;10614;53.198;6.570;2022-09-29T06:37:56;100150.06;;;6.06;100.00
20909;BME280;10614;53.198;6.570;2022-09-29T06:39:58;100156.97;;;6.07;100.00
20909;BME280;10614;53.198;6.570;2022-09-29T06:42:02;100162.94;;;6.11;100.00
20909;BME280;10614;53.198;6.570;2022-09-29T06:44:03;100162.94;;;6.11;100.00
20909;BME280;10614;53.198;6.570;2022-09-29T06:46:05;100166.44;;;6.11;100.00
20909;BME280;10614;53.198;6.570;2022-09-29T06:48:06;100164.66;;;6.12;100.00
20909;BME280;10614;53.198;6.570;2022-09-29T06:50:09;100165.47;;;6.14;100.00
20909;BME280;10614;53.198;6.570;2022-09-29T06:52:10;100167.13;;;6.17;100.00
20909;BME280;10614;53.198;6.570;2022-09-29T06:54:13;100166.28;;;6.16;100.00
20909;BME280;10614;53.198;6.570;2022-09-29T06:56:16;100166.19;;;6.18;100.00
20909;BME280;10614;53.198;6.570;2022-09-29T06:58:19;100166.16;;;6.19;100.00
20909;BME280;10614;53.198;6.570;2022-09-29T07:00:21;100168.75;;;6.21;100.00
20909;BME280;10614;53.198;6.570;2022-09-29T07:02:22;100173.06;;;6.22;100.00
20909;BME280;10614;53.198;6.570;2022-09-29T07:04:24;100175.63;;;6.23;100.00
20909;BME280;10614;53.198;6.570;2022-09-29T07:06:26;100180.75;;;6.26;100.00
20909;BME280;10614;53.198;6.570;2022-09-29T07:08:28;100179.78;;;6.29;100.00
20909;BME280;10614;53.198;6.570;2022-09-29T07:10:30;100181.44;;;6.31;100.00
20909;BME280;10614;53.198;6.570;2022-09-29T07:12:32;100183.16;;;6.32;100.00
20909;BME280;10614;53.198;6.570;2022-09-29T07:14:36;100188.28;;;6.36;100.00
20909;BME280;10614;53.198;6.570;2022-09-29T07:16:37;100184.75;;;6.37;100.00
20909;BME280;10614;53.198;6.570;2022-09-29T07:18:41;100189.03;;;6.39;100.00
20909;BME280;10614;53.198;6.570;2022-09-29T07:20:42;100189.03;;;6.39;100.00
20909;BME280;10614;53.198;6.570;2022-09-29T07:22:45;100181.13;;;6.41;100.00
20909;BME280;10614;53.198;6.570;2022-09-29T07:24:47;100192.41;;;6.43;100.00
20909;BME280;10614;53.198;6.570;2022-09-29T07:26:50;100198.44;;;6.45;100.00
20909;BME280;10614;53.198;6.570;2022-09-29T07:28:52;100196.66;;;6.45;100.00
20909;BME280;10614;53.198;6.570;2022-09-29T07:31:00;100196.56;;;6.48;100.00
20909;BME280;10614;53.198;6.570;2022-09-29T07:33:02;100203.41;;;6.52;100.00
20909;BME280;10614;53.198;6.570;2022-09-29T07:35:04;100202.50;;;6.53;100.00
20909;BME280;10614;53.198;6.570;2022-09-29T07:37:06;100205.06;;;6.55;100.00
20909;BME280;10614;53.198;6.570;2022-09-29T07:39:08;100201.47;;;6.58;100.00
20909;BME280;10614;53.198;6.570;2022-09-29T07:41:10;100204.00;;;6.61;100.00
20909;BME280;10614;53.198;6.570;2022-09-29T07:43:12;100201.28;;;6.64;100.00
20909;BME280;10614;53.198;6.570;2022-09-29T07:45:13;100201.16;;;6.67;100.00
20909;BME280;10614;53.198;6.570;2022-09-29T07:47:16;100203.69;;;6.70;100.00
20909;BME280;10614;53.198;6.570;2022-09-29T07:49:18;100210.50;;;6.74;100.00
20909;BME280;10614;53.198;6.570;2022-09-29T07:51:20;100207.81;;;6.77;100.00
20909;BME280;10614;53.198;6.570;2022-09-29T07:53:21;100205.94;;;6.81;100.00
20909;BME280;10614;53.198;6.570;2022-09-29T07:55:23;100212.78;;;6.85;100.00
20909;BME280;10614;53.198;6.570;2022-09-29T07:57:26;100214.41;;;6.87;100.00
20909;BME280;10614;53.198;6.570;2022-09-29T07:59:29;100214.38;;;6.89;100.00
20909;BME280;10614;53.198;6.570;2022-09-29T08:01:30;100218.56;;;6.93;100.00
20909;BME280;10614;53.198;6.570;2022-09-29T08:03:34;100223.72;;;6.96;100.00
20909;BME280;10614;53.198;6.570;2022-09-29T08:05:35;100224.44;;;7.00;100.00
20909;BME280;10614;53.198;6.570;2022-09-29T08:07:37;100224.38;;;7.03;100.00
20909;BME280;10614;53.198;6.570;2022-09-29T08:09:39;100220.72;;;7.07;100.00
20909;BME280;10614;53.198;6.570;2022-09-29T08:11:42;100224.94;;;7.11;100.00
20909;BME280;10614;53.198;6.570;2022-09-29T08:13:44;100228.31;;;7.14;100.00
20909;BME280;10614;53.198;6.570;2022-09-29T08:15:46;100222.84;;;7.21;100.00
20909;BME280;10614;53.198;6.570;2022-09-29T08:17:48;100226.25;;;7.23;100.00
20909;BME280;10614;53.198;6.570;2022-09-29T08:19:53;100228.66;;;7.29;100.00
20909;BME280;10614;53.198;6.570;2022-09-29T08:21:55;100225.88;;;7.33;100.00
20909;BME280;10614;53.198;6.570;2022-09-29T08:23:56;100225.75;;;7.36;100.00
20909;BME280;10614;53.198;6.570;2022-09-29T08:25:59;100231.75;;;7.40;100.00
20909;BME280;10614;53.198;6.570;2022-09-29T08:28:01;100230.69;;;7.44;100.00
20909;BME280;10614;53.198;6.570;2022-09-29T08:30:04;100228.78;;;7.49;100.00
20909;BME280;10614;53.198;6.570;2022-09-29T08:32:06;100231.28;;;7.52;100.00
20909;BME280;10614;53.198;6.570;2022-09-29T08:34:08;100232.91;;;7.56;100.00
20909;BME280;10614;53.198;6.570;2022-09-29T08:36:11;100233.56;;;7.61;100.00
20909;BME280;10614;53.198;6.570;2022-09-29T08:38:15;100236.03;;;7.66;100.00
20909;BME280;10614;53.198;6.570;2022-09-29T08:40:17;100236.69;;;7.71;100.00
20909;BME280;10614;53.198;6.570;2022-09-29T08:42:24;100251.31;;;7.77;100.00
20909;BME280;10614;53.198;6.570;2022-09-29T08:44:36;100246.81;;;7.80;100.00
20909;BME280;10614;53.198;6.570;2022-09-29T08:46:43;100245.81;;;7.85;100.00
20909;BME280;10614;53.198;6.570;2022-09-29T08:48:46;100250.00;;;7.89;100.00
20909;BME280;10614;53.198;6.570;2022-09-29T08:50:51;100249.75;;;7.95;100.00
20909;BME280;10614;53.198;6.570;2022-09-29T08:53:00;100240.94;;;7.97;100.00
20909;BME280;10614;53.198;6.570;2022-09-29T08:55:20;100244.16;;;8.04;100.00
20909;BME280;10614;53.198;6.570;2022-09-29T08:57:23;100250.03;;;8.11;100.00
20909;BME280;10614;53.198;6.570;2022-09-29T08:59:27;100250.75;;;8.14;100.00
20909;BME280;10614;53.198;6.570;2022-09-29T09:01:34;100256.59;;;8.21;100.00
20909;BME280;10614;53.198;6.570;2022-09-29T09:03:56;100255.53;;;8.27;100.00
20909;BME280;10614;53.198;6.570;2022-09-29T09:06:11;100256.13;;;8.33;100.00
20909;BME280;10614;53.198;6.570;2022-09-29T09:08:25;100250.63;;;8.39;100.00
20909;BME280;10614;53.198;6.570;2022-09-29T09:10:38;100256.56;;;8.44;100.00
20909;BME280;10614;53.198;6.570;2022-09-29T09:15:34;100263.94;;;8.57;100.00
20909;BME280;10614;53.198;6.570;2022-09-29T09:17:49;100264.63;;;8.62;100.00
20909;BME280;10614;53.198;6.570;2022-09-29T09:20:14;100260.09;;;8.65;100.00
20909;BME280;10614;53.198;6.570;2022-09-29T09:22:21;100272.13;;;8.71;100.00
20909;BME280;10614;53.198;6.570;2022-09-29T09:24:28;100264.94;;;8.75;100.00
20909;BME280;10614;53.198;6.570;2022-09-29T09:26:38;100269.03;;;8.82;100.00
20909;BME280;10614;53.198;6.570;2022-09-29T09:28:43;100272.44;;;8.84;100.00
20909;BME280;10614;53.198;6.570;2022-09-29T09:30:50;100268.00;;;8.86;100.00
20909;BME280;10614;53.198;6.570;2022-09-29T09:32:55;100270.28;;;8.94;100.00
20909;BME280;10614;53.198;6.570;2022-09-29T09:34:59;100263.06;;;8.99;100.00
20909;BME280;10614;53.198;6.570;2022-09-29T09:37:06;100265.28;;;9.08;100.00
20909;BME280;10614;53.198;6.570;2022-09-29T09:39:11;100277.22;;;9.15;100.00
20909;BME280;10614;53.198;6.570;2022-09-29T09:41:16;100267.31;;;9.22;100.00
20909;BME280;10614;53.198;6.570;2022-09-29T09:43:21;100264.59;;;9.25;100.00
20909;BME280;10614;53.198;6.570;2022-09-29T09:45:28;100267.00;;;9.29;100.00
20909;BME280;10614;53.198;6.570;2022-09-29T09:47:34;100269.19;;;9.39;100.00
20909;BME280;10614;53.198;6.570;2022-09-29T09:49:41;100269.94;;;9.42;100.00
20909;BME280;10614;53.198;6.570;2022-09-29T09:51:49;100274.19;;;9.45;100.00
20909;BME280;10614;53.198;6.570;2022-09-29T09:53:55;100278.34;;;9.50;100.00
20909;BME280;10614;53.198;6.570;2022-09-29T09:56:06;100265.97;;;9.52;100.00
20909;BME280;10614;53.198;6.570;2022-09-29T09:58:35;100266.63;;;9.58;100.00
20909;BME280;10614;53.198;6.570;2022-09-29T10:00:45;100276.84;;;9.64;100.00
20909;BME280;10614;53.198;6.570;2022-09-29T10:02:50;100277.63;;;9.66;100.00
20909;BME280;10614;53.198;6.570;2022-09-29T10:04:53;100276.66;;;9.68;100.00
20909;BME280;10614;53.198;6.570;2022-09-29T10:06:56;100280.84;;;9.72;100.00
20909;BME280;10614;53.198;6.570;2022-09-29T10:08:57;100270.97;;;9.78;100.00
20909;BME280;10614;53.198;6.570;2022-09-29T10:10:59;100275.81;;;9.87;100.00
20909;BME280;10614;53.198;6.570;2022-09-29T10:13:03;100273.69;;;9.95;100.00
20909;BME280;10614;53.198;6.570;2022-09-29T10:15:19;100273.38;;;10.01;100.00
20909;BME280;10614;53.198;6.570;2022-09-29T10:17:25;100285.19;;;10.11;100.00
20909;BME280;10614;53.198;6.570;2022-09-29T10:19:52;100289.09;;;10.22;100.00
20909;BME280;10614;53.198;6.570;2022-09-29T10:22:11;100284.34;;;10.30;100.00
20909;BME280;10614;53.198;6.570;2022-09-29T10:24:25;100291.38;;;10.29;100.00
20909;BME280;10614;53.198;6.570;2022-09-29T10:26:33;100291.38;;;10.29;100.00
20909;BME280;10614;53.198;6.570;2022-09-29T10:28:40;100287.94;;;10.27;100.00
20909;BME280;10614;53.198;6.570;2022-09-29T10:30:44;100286.91;;;10.31;100.00
20909;BME280;10614;53.198;6.570;2022-09-29T10:32:46;100293.88;;;10.32;100.00
20909;BME280;10614;53.198;6.570;2022-09-29T10:34:50;100287.75;;;10.32;100.00
20909;BME280;10614;53.198;6.570;2022-09-29T10:36:55;100291.00;;;10.37;100.00
20909;BME280;10614;53.198;6.570;2022-09-29T10:38:58;100292.34;;;10.46;100.00
20909;BME280;10614;53.198;6.570;2022-09-29T10:41:03;100300.13;;;10.49;100.00
20909;BME280;10614;53.198;6.570;2022-09-29T10:43:26;100304.22;;;10.54;100.00
20909;BME280;10614;53.198;6.570;2022-09-29T10:45:47;100304.16;;;10.56;100.00
20909;BME280;10614;53.198;6.570;2022-09-29T10:48:07;100305.78;;;10.59;100.00
20909;BME280;10614;53.198;6.570;2022-09-29T10:50:15;100297.66;;;10.63;100.00
20909;BME280;10614;53.198;6.570;2022-09-29T10:52:23;100301.75;;;10.69;100.00
20909;BME280;10614;53.198;6.570;2022-09-29T10:54:27;100294.47;;;10.74;100.00
20909;BME280;10614;53.198;6.570;2022-09-29T10:56:30;100302.03;;;10.82;100.00
20909;BME280;10614;53.198;6.570;2022-09-29T10:58:34;100304.03;;;10.94;100.00
20909;BME280;10614;53.198;6.570;2022-09-29T11:00:37;100307.84;;;11.06;100.00
20909;BME280;10614;53.198;6.570;2022-09-29T11:02:41;100302.88;;;11.17;100.00
20909;BME280;10614;53.198;6.570;2022-09-29T11:04:45;100308.19;;;11.33;100.00